Time;durP1;ratioP1;P1;durP2;ratioP2;P2;SDS_P1;SDS_P2;PMS_P1;PMS_P2;Temp;Humidity;BMP_temperature;BMP_pressure;BME280_temperature;BME280_humidity;BME280_pressure;Samples;Min_cycle;Max_cycle;Signal;HPM_P1;HPM_P2
2023/09/01 00:18:01;;;;;;;8.33;6.33;;;12.50;99.90;;;;;;4540543;30;20639;-85
2023/09/01 00:44:06;;;;;;;10.43;7.47;;;11.50;99.90;;;;;;4578926;30;20261;-87
2023/09/01 01:14:15;;;;;;;11.30;8.10;;;11.70;99.90;;;;;;4574711;30;20578;-86
2023/09/01 01:39:45;;;;;;;8.27;7.47;;;11.80;99.90;;;;;;4626191;29;20468;-82
2023/09/01 02:04:54;;;;;;;10.70;7.07;;;11.70;99.90;;;;;;4627464;30;20266;-82
2023/09/01 02:25:15;;;;;;;8.70;7.30;;;11.70;99.90;;;;;;4645909;30;20643;-82
2023/09/01 02:55:17;;;;;;;6.80;6.20;;;11.80;99.90;;;;;;4442686;31;20622;-86
2023/09/01 04:01:50;;;;;;;6.13;5.53;;;12.60;99.90;;;;;;4669617;29;20399;-80
2023/09/01 04:32:14;;;;;;;5.73;5.00;;;12.90;99.90;;;;;;4618429;30;20345;-83
2023/09/01 05:02:02;;;;;;;5.87;5.27;;;13.80;99.90;;;;;;4624640;30;20582;-83
2023/09/01 05:22:42;;;;;;;4.93;4.10;;;14.40;99.90;;;;;;4581535;30;20388;-82
2023/09/01 05:52:49;;;;;;;3.63;3.07;;;15.20;99.90;;;;;;4615981;30;20571;-84
2023/09/01 06:13:40;;;;;;;4.80;3.37;;;15.40;98.60;;;;;;4634192;30;20220;-83
2023/09/01 06:44:02;;;;;;;2.90;2.63;;;16.40;90.00;;;;;;4688337;29;20235;-82
2023/09/01 07:09:19;;;;;;;2.63;2.10;;;17.10;88.30;;;;;;4609989;30;20334;-83
2023/09/01 07:54:37;;;;;;;3.17;2.20;;;17.80;82.80;;;;;;4617677;29;20478;-84
2023/09/01 08:24:55;;;;;;;2.43;1.50;;;18.20;82.60;;;;;;4688922;29;20746;-85
2023/09/01 08:40:23;;;;;;;1.77;1.67;;;18.40;79.10;;;;;;4635695;30;20647;-85
2023/09/01 09:00:56;;;;;;;1.50;1.40;;;18.90;77.00;;;;;;4670201;30;20325;-85
2023/09/01 09:31:16;;;;;;;2.15;1.65;;;19.60;67.60;;;;;;4682413;30;20240;-83
2023/09/01 09:51:47;;;;;;;1.60;1.50;;;19.20;70.90;;;;;;4689487;29;20242;-82
2023/09/01 12:43:43;;;;;;;1.83;1.70;;;21.70;57.20;;;;;;4613035;30;20232;-87
2023/09/01 12:59:15;;;;;;;2.63;1.80;;;21.40;57.20;;;;;;4565540;30;21440;-88
2023/09/01 13:19:45;;;;;;;1.80;1.70;;;23.20;55.60;;;;;;4537449;31;20237;-86
2023/09/01 13:55:11;;;;;;;5.50;2.08;;;23.20;55.90;;;;;;4703813;30;20578;-86
2023/09/01 14:20:22;;;;;;;2.92;1.73;;;23.40;54.80;;;;;;4681733;30;20200;-85
2023/09/01 14:56:14;;;;;;;2.55;1.77;;;23.40;53.60;;;;;;4665987;30;20218;-84
2023/09/01 15:25:59;;;;;;;2.33;2.13;;;21.60;55.90;;;;;;4489538;31;20698;-85
2023/09/01 15:51:44;;;;;;;4.30;2.00;;;21.20;56.40;;;;;;4619895;30;20244;-80
2023/09/01 16:12:18;;;;;;;2.88;2.22;;;21.20;56.70;;;;;;4719323;29;20252;-82
2023/09/01 16:52:45;;;;;;;3.63;2.30;;;20.00;60.70;;;;;;4867327;29;20304;-84
2023/09/01 17:18:05;;;;;;;3.03;2.37;;;18.70;80.00;;;;;;4720796;29;20218;-82
2023/09/01 17:38:08;;;;;;;4.37;2.83;;;17.90;85.70;;;;;;4564956;30;20224;-86
2023/09/01 18:08:34;;;;;;;4.40;3.40;;;16.80;94.40;;;;;;4530962;30;20540;-82
2023/09/01 18:33:53;;;;;;;5.67;3.23;;;16.30;99.90;;;;;;4686491;30;20769;-83
2023/09/01 19:14:39;;;;;;;5.60;3.70;;;15.60;99.90;;;;;;4546697;30;20681;-85
2023/09/01 20:30:45;;;;;;;8.87;5.57;;;14.10;99.90;;;;;;4641469;30;20645;-82
2023/09/01 20:56:03;;;;;;;9.73;6.40;;;13.80;99.90;;;;;;4591815;30;20210;-85
2023/09/01 21:21:14;;;;;;;10.33;6.63;;;13.40;99.90;;;;;;4619746;30;20224;-81
2023/09/01 22:07:07;;;;;;;8.87;7.23;;;13.30;99.90;;;;;;4451625;31;20363;-84
2023/09/01 22:37:39;;;;;;;9.57;6.80;;;13.50;99.90;;;;;;4636777;30;20285;-82
2023/09/01 22:57:32;;;;;;;9.87;7.60;;;13.50;99.90;;;;;;4605545;30;20423;-88
2023/09/01 23:23:03;;;;;;;10.07;9.07;;;13.60;99.90;;;;;;4686532;29;20557;-85
2023/09/01 23:58:47;;;;;;;12.10;10.80;;;13.80;99.90;;;;;;4702299;29;20203;-81
